sensor_id;sensor_type;location;lat;lon;timestamp;temperature;humidity
939;DHT22;456;53.584;9.968;2024-02-28T00:01:52;16.70;17.30
939;DHT22;456;53.584;9.968;2024-02-28T00:04:18;16.70;17.40
939;DHT22;456;53.584;9.968;2024-02-28T00:06:44;16.70;17.30
939;DHT22;456;53.584;9.968;2024-02-28T00:09:11;16.70;17.30
939;DHT22;456;53.584;9.968;2024-02-28T00:11:45;16.70;17.30
939;DHT22;456;53.584;9.968;2024-02-28T00:14:12;16.70;17.30
939;DHT22;456;53.584;9.968;2024-02-28T00:16:44;16.70;17.80
939;DHT22;456;53.584;9.968;2024-02-28T00:19:10;16.70;17.30
939;DHT22;456;53.584;9.968;2024-02-28T00:21:39;16.70;17.30
939;DHT22;456;53.584;9.968;2024-02-28T00:24:06;16.70;17.30
939;DHT22;456;53.584;9.968;2024-02-28T00:26:31;16.70;17.30
939;DHT22;456;53.584;9.968;2024-02-28T00:28:57;16.70;17.30
939;DHT22;456;53.584;9.968;2024-02-28T00:31:23;16.60;17.30
939;DHT22;456;53.584;9.968;2024-02-28T00:33:48;16.60;17.30
939;DHT22;456;53.584;9.968;2024-02-28T00:36:14;16.60;17.30
939;DHT22;456;53.584;9.968;2024-02-28T00:38:41;16.60;17.20
939;DHT22;456;53.584;9.968;2024-02-28T00:41:07;16.60;17.30
939;DHT22;456;53.584;9.968;2024-02-28T00:43:32;16.60;17.10
939;DHT22;456;53.584;9.968;2024-02-28T00:45:58;16.60;17.10
939;DHT22;456;53.584;9.968;2024-02-28T00:48:24;16.60;17.10
939;DHT22;456;53.584;9.968;2024-02-28T00:50:50;16.60;17.10
939;DHT22;456;53.584;9.968;2024-02-28T00:53:15;16.60;17.10
939;DHT22;456;53.584;9.968;2024-02-28T00:55:41;16.60;17.10
939;DHT22;456;53.584;9.968;2024-02-28T00:58:07;16.60;17.10
939;DHT22;456;53.584;9.968;2024-02-28T01:00:32;16.60;17.00
939;DHT22;456;53.584;9.968;2024-02-28T01:02:58;16.60;17.00
939;DHT22;456;53.584;9.968;2024-02-28T01:05:24;16.60;17.00
939;DHT22;456;53.584;9.968;2024-02-28T01:07:49;16.60;17.00
939;DHT22;456;53.584;9.968;2024-02-28T01:10:15;16.60;17.00
939;DHT22;456;53.584;9.968;2024-02-28T01:12:40;16.60;17.00
939;DHT22;456;53.584;9.968;2024-02-28T01:15:06;16.60;16.90
939;DHT22;456;53.584;9.968;2024-02-28T01:17:32;16.60;17.00
939;DHT22;456;53.584;9.968;2024-02-28T01:19:58;16.60;16.90
939;DHT22;456;53.584;9.968;2024-02-28T01:22:24;16.50;16.90
939;DHT22;456;53.584;9.968;2024-02-28T01:24:49;16.60;16.90
939;DHT22;456;53.584;9.968;2024-02-28T01:27:15;16.60;16.80
939;DHT22;456;53.584;9.968;2024-02-28T01:29:40;16.60;16.90
939;DHT22;456;53.584;9.968;2024-02-28T01:32:06;16.60;16.80
939;DHT22;456;53.584;9.968;2024-02-28T01:34:32;16.50;16.80
939;DHT22;456;53.584;9.968;2024-02-28T01:36:57;16.50;16.80
939;DHT22;456;53.584;9.968;2024-02-28T01:39:23;16.50;16.70
939;DHT22;456;53.584;9.968;2024-02-28T01:41:55;16.50;16.70
939;DHT22;456;53.584;9.968;2024-02-28T01:44:21;16.50;16.70
939;DHT22;456;53.584;9.968;2024-02-28T01:46:47;16.50;16.70
939;DHT22;456;53.584;9.968;2024-02-28T01:49:13;16.50;16.70
939;DHT22;456;53.584;9.968;2024-02-28T01:51:40;16.50;16.60
939;DHT22;456;53.584;9.968;2024-02-28T01:54:07;16.50;16.70
939;DHT22;456;53.584;9.968;2024-02-28T01:56:34;16.50;16.60
939;DHT22;456;53.584;9.968;2024-02-28T01:59:00;16.50;16.60
939;DHT22;456;53.584;9.968;2024-02-28T02:01:27;16.50;16.60
939;DHT22;456;53.584;9.968;2024-02-28T02:03:54;16.50;16.50
939;DHT22;456;53.584;9.968;2024-02-28T02:06:20;16.50;16.50
939;DHT22;456;53.584;9.968;2024-02-28T02:08:46;16.50;16.50
939;DHT22;456;53.584;9.968;2024-02-28T02:11:14;16.50;16.60
939;DHT22;456;53.584;9.968;2024-02-28T02:13:53;16.50;16.50
939;DHT22;456;53.584;9.968;2024-02-28T02:16:20;16.50;16.40
939;DHT22;456;53.584;9.968;2024-02-28T02:18:51;16.50;16.90
939;DHT22;456;53.584;9.968;2024-02-28T02:21:23;16.50;16.40
939;DHT22;456;53.584;9.968;2024-02-28T02:23:50;16.50;16.40
939;DHT22;456;53.584;9.968;2024-02-28T02:26:15;16.50;16.40
939;DHT22;456;53.584;9.968;2024-02-28T02:28:41;16.50;16.40
939;DHT22;456;53.584;9.968;2024-02-28T02:31:07;16.50;16.40
939;DHT22;456;53.584;9.968;2024-02-28T02:33:33;16.50;16.40
939;DHT22;456;53.584;9.968;2024-02-28T02:35:58;16.50;16.40
939;DHT22;456;53.584;9.968;2024-02-28T02:38:24;16.50;16.40
939;DHT22;456;53.584;9.968;2024-02-28T02:40:52;16.50;16.40
939;DHT22;456;53.584;9.968;2024-02-28T02:43:18;16.50;16.40
939;DHT22;456;53.584;9.968;2024-02-28T02:45:44;16.50;16.40
939;DHT22;456;53.584;9.968;2024-02-28T02:48:10;16.50;16.40
939;DHT22;456;53.584;9.968;2024-02-28T02:50:36;16.50;16.30
939;DHT22;456;53.584;9.968;2024-02-28T02:53:02;16.40;16.30
939;DHT22;456;53.584;9.968;2024-02-28T02:55:28;16.40;16.30
939;DHT22;456;53.584;9.968;2024-02-28T02:57:54;16.40;16.30
939;DHT22;456;53.584;9.968;2024-02-28T03:00:20;16.40;16.30
939;DHT22;456;53.584;9.968;2024-02-28T03:02:46;16.40;16.30
939;DHT22;456;53.584;9.968;2024-02-28T03:05:12;16.40;16.30
939;DHT22;456;53.584;9.968;2024-02-28T03:07:37;16.40;16.30
939;DHT22;456;53.584;9.968;2024-02-28T03:10:03;16.40;16.30
939;DHT22;456;53.584;9.968;2024-02-28T03:12:29;16.40;16.30
939;DHT22;456;53.584;9.968;2024-02-28T03:14:54;16.40;16.20
939;DHT22;456;53.584;9.968;2024-02-28T03:17:20;16.40;16.10
939;DHT22;456;53.584;9.968;2024-02-28T03:19:45;16.40;16.10
939;DHT22;456;53.584;9.968;2024-02-28T03:22:11;16.40;16.20
939;DHT22;456;53.584;9.968;2024-02-28T03:24:37;16.40;16.10
939;DHT22;456;53.584;9.968;2024-02-28T03:27:03;16.40;16.10
939;DHT22;456;53.584;9.968;2024-02-28T03:29:28;16.40;16.20
939;DHT22;456;53.584;9.968;2024-02-28T03:31:54;16.40;16.30
939;DHT22;456;53.584;9.968;2024-02-28T03:34:20;16.40;16.20
939;DHT22;456;53.584;9.968;2024-02-28T03:36:45;16.40;16.20
939;DHT22;456;53.584;9.968;2024-02-28T03:39:11;16.40;16.30
939;DHT22;456;53.584;9.968;2024-02-28T03:41:38;16.40;16.30
939;DHT22;456;53.584;9.968;2024-02-28T03:44:04;16.40;16.20
939;DHT22;456;53.584;9.968;2024-02-28T03:46:30;16.40;16.30
939;DHT22;456;53.584;9.968;2024-02-28T03:48:56;16.40;16.20
939;DHT22;456;53.584;9.968;2024-02-28T03:51:21;16.40;16.30
939;DHT22;456;53.584;9.968;2024-02-28T03:53:47;16.40;16.30
939;DHT22;456;53.584;9.968;2024-02-28T03:56:12;16.40;16.20
939;DHT22;456;53.584;9.968;2024-02-28T03:58:40;16.40;16.30
939;DHT22;456;53.584;9.968;2024-02-28T04:01:06;16.40;16.30
939;DHT22;456;53.584;9.968;2024-02-28T04:03:31;16.40;16.30
939;DHT22;456;53.584;9.968;2024-02-28T04:05:57;16.40;16.30
939;DHT22;456;53.584;9.968;2024-02-28T04:08:24;16.30;16.20
939;DHT22;456;53.584;9.968;2024-02-28T04:10:49;16.40;16.30
939;DHT22;456;53.584;9.968;2024-02-28T04:13:16;16.40;16.30
939;DHT22;456;53.584;9.968;2024-02-28T04:15:42;16.40;16.30
939;DHT22;456;53.584;9.968;2024-02-28T04:18:07;16.40;16.30
939;DHT22;456;53.584;9.968;2024-02-28T04:20:33;16.40;16.30
939;DHT22;456;53.584;9.968;2024-02-28T04:22:59;16.30;16.20
939;DHT22;456;53.584;9.968;2024-02-28T04:25:24;16.30;16.30
939;DHT22;456;53.584;9.968;2024-02-28T04:27:50;16.40;16.40
939;DHT22;456;53.584;9.968;2024-02-28T04:30:15;16.40;16.30
939;DHT22;456;53.584;9.968;2024-02-28T04:32:41;16.30;16.30
939;DHT22;456;53.584;9.968;2024-02-28T04:35:08;16.30;16.30
939;DHT22;456;53.584;9.968;2024-02-28T04:37:33;16.30;16.30
939;DHT22;456;53.584;9.968;2024-02-28T04:40:02;16.30;16.30
939;DHT22;456;53.584;9.968;2024-02-28T04:42:28;16.30;16.30
939;DHT22;456;53.584;9.968;2024-02-28T04:44:53;16.30;16.30
939;DHT22;456;53.584;9.968;2024-02-28T04:47:19;16.30;16.30
939;DHT22;456;53.584;9.968;2024-02-28T04:49:44;16.30;16.30
939;DHT22;456;53.584;9.968;2024-02-28T04:52:10;16.30;16.30
939;DHT22;456;53.584;9.968;2024-02-28T04:54:35;16.40;16.60
939;DHT22;456;53.584;9.968;2024-02-28T04:57:01;16.40;17.40
939;DHT22;456;53.584;9.968;2024-02-28T04:59:28;16.40;17.80
939;DHT22;456;53.584;9.968;2024-02-28T05:01:53;16.50;18.00
939;DHT22;456;53.584;9.968;2024-02-28T05:04:19;16.60;18.10
939;DHT22;456;53.584;9.968;2024-02-28T05:06:45;16.60;18.00
939;DHT22;456;53.584;9.968;2024-02-28T05:09:10;16.70;18.10
939;DHT22;456;53.584;9.968;2024-02-28T05:11:36;16.70;18.10
939;DHT22;456;53.584;9.968;2024-02-28T05:14:01;16.80;18.10
939;DHT22;456;53.584;9.968;2024-02-28T05:16:27;16.80;18.60
939;DHT22;456;53.584;9.968;2024-02-28T05:18:52;16.80;18.10
939;DHT22;456;53.584;9.968;2024-02-28T05:21:18;16.80;18.10
939;DHT22;456;53.584;9.968;2024-02-28T05:23:43;16.90;18.10
939;DHT22;456;53.584;9.968;2024-02-28T05:26:09;16.90;18.20
939;DHT22;456;53.584;9.968;2024-02-28T05:28:34;16.90;18.20
939;DHT22;456;53.584;9.968;2024-02-28T05:31:22;16.90;18.20
939;DHT22;456;53.584;9.968;2024-02-28T05:33:50;16.90;18.20
939;DHT22;456;53.584;9.968;2024-02-28T05:36:16;17.00;18.70
939;DHT22;456;53.584;9.968;2024-02-28T05:38:42;17.00;18.20
939;DHT22;456;53.584;9.968;2024-02-28T05:41:07;17.00;18.20
939;DHT22;456;53.584;9.968;2024-02-28T05:43:33;17.00;18.20
939;DHT22;456;53.584;9.968;2024-02-28T05:45:58;17.00;18.20
939;DHT22;456;53.584;9.968;2024-02-28T05:48:24;17.00;18.20
939;DHT22;456;53.584;9.968;2024-02-28T05:50:49;17.10;18.30
939;DHT22;456;53.584;9.968;2024-02-28T05:53:15;17.00;18.20
939;DHT22;456;53.584;9.968;2024-02-28T05:55:40;17.10;18.20
939;DHT22;456;53.584;9.968;2024-02-28T05:58:06;17.00;18.20
939;DHT22;456;53.584;9.968;2024-02-28T06:00:32;17.00;18.20
939;DHT22;456;53.584;9.968;2024-02-28T06:02:59;17.10;18.20
939;DHT22;456;53.584;9.968;2024-02-28T06:05:24;17.10;18.20
939;DHT22;456;53.584;9.968;2024-02-28T06:07:50;17.10;18.20
939;DHT22;456;53.584;9.968;2024-02-28T06:10:16;17.10;18.20
939;DHT22;456;53.584;9.968;2024-02-28T06:12:42;17.10;18.30
939;DHT22;456;53.584;9.968;2024-02-28T06:15:07;17.10;18.30
939;DHT22;456;53.584;9.968;2024-02-28T06:17:33;17.10;18.20
939;DHT22;456;53.584;9.968;2024-02-28T06:19:58;17.20;18.40
939;DHT22;456;53.584;9.968;2024-02-28T06:22:24;17.10;18.30
939;DHT22;456;53.584;9.968;2024-02-28T06:24:50;17.10;18.30
939;DHT22;456;53.584;9.968;2024-02-28T06:27:15;17.10;18.30
939;DHT22;456;53.584;9.968;2024-02-28T06:29:41;17.10;18.40
939;DHT22;456;53.584;9.968;2024-02-28T06:32:07;17.10;18.40
939;DHT22;456;53.584;9.968;2024-02-28T06:34:33;17.10;18.40
939;DHT22;456;53.584;9.968;2024-02-28T06:36:58;17.10;18.40
939;DHT22;456;53.584;9.968;2024-02-28T06:39:24;17.10;18.40
939;DHT22;456;53.584;9.968;2024-02-28T06:41:49;17.10;18.40
939;DHT22;456;53.584;9.968;2024-02-28T06:44:19;17.10;18.40
939;DHT22;456;53.584;9.968;2024-02-28T06:46:45;17.10;18.50
939;DHT22;456;53.584;9.968;2024-02-28T06:49:10;17.10;18.40
939;DHT22;456;53.584;9.968;2024-02-28T06:51:36;17.10;18.50
939;DHT22;456;53.584;9.968;2024-02-28T06:54:02;17.10;18.40
939;DHT22;456;53.584;9.968;2024-02-28T06:56:28;17.10;18.50
939;DHT22;456;53.584;9.968;2024-02-28T06:58:54;17.10;18.50
939;DHT22;456;53.584;9.968;2024-02-28T07:01:19;17.10;18.50
939;DHT22;456;53.584;9.968;2024-02-28T07:03:46;17.10;18.50
939;DHT22;456;53.584;9.968;2024-02-28T07:06:11;17.10;18.50
939;DHT22;456;53.584;9.968;2024-02-28T07:08:37;17.10;18.50
939;DHT22;456;53.584;9.968;2024-02-28T07:11:03;17.10;18.50
939;DHT22;456;53.584;9.968;2024-02-28T07:13:29;17.10;18.50
939;DHT22;456;53.584;9.968;2024-02-28T07:15:54;17.00;18.50
939;DHT22;456;53.584;9.968;2024-02-28T07:18:23;17.10;18.50
939;DHT22;456;53.584;9.968;2024-02-28T07:20:51;17.00;18.50
939;DHT22;456;53.584;9.968;2024-02-28T07:23:17;17.00;18.50
939;DHT22;456;53.584;9.968;2024-02-28T07:25:43;17.00;18.50
939;DHT22;456;53.584;9.968;2024-02-28T07:28:08;17.00;18.50
939;DHT22;456;53.584;9.968;2024-02-28T07:30:34;17.00;18.50
939;DHT22;456;53.584;9.968;2024-02-28T07:32:59;17.00;18.50
939;DHT22;456;53.584;9.968;2024-02-28T07:35:25;17.00;18.40
939;DHT22;456;53.584;9.968;2024-02-28T07:37:51;17.00;18.40
939;DHT22;456;53.584;9.968;2024-02-28T07:40:17;17.00;18.40
939;DHT22;456;53.584;9.968;2024-02-28T07:42:42;17.00;18.40
939;DHT22;456;53.584;9.968;2024-02-28T07:45:08;17.00;18.30
939;DHT22;456;53.584;9.968;2024-02-28T07:47:34;16.90;18.30
939;DHT22;456;53.584;9.968;2024-02-28T07:50:00;17.00;18.30
939;DHT22;456;53.584;9.968;2024-02-28T07:52:25;16.90;18.30
939;DHT22;456;53.584;9.968;2024-02-28T07:54:51;16.90;18.20
939;DHT22;456;53.584;9.968;2024-02-28T07:57:17;16.90;18.20
939;DHT22;456;53.584;9.968;2024-02-28T07:59:43;16.90;18.30
939;DHT22;456;53.584;9.968;2024-02-28T08:02:09;16.90;18.30
939;DHT22;456;53.584;9.968;2024-02-28T08:04:37;16.90;18.30
939;DHT22;456;53.584;9.968;2024-02-28T08:07:03;16.90;18.30
939;DHT22;456;53.584;9.968;2024-02-28T08:09:29;16.90;18.30
939;DHT22;456;53.584;9.968;2024-02-28T08:11:54;16.90;18.20
939;DHT22;456;53.584;9.968;2024-02-28T08:14:20;16.80;18.20
939;DHT22;456;53.584;9.968;2024-02-28T08:16:46;16.80;18.20
939;DHT22;456;53.584;9.968;2024-02-28T08:19:12;16.80;18.20
939;DHT22;456;53.584;9.968;2024-02-28T08:21:37;16.80;18.20
939;DHT22;456;53.584;9.968;2024-02-28T08:24:03;16.80;18.20
939;DHT22;456;53.584;9.968;2024-02-28T08:26:31;16.80;18.20
939;DHT22;456;53.584;9.968;2024-02-28T08:28:56;16.80;18.20
939;DHT22;456;53.584;9.968;2024-02-28T08:31:22;16.80;18.20
939;DHT22;456;53.584;9.968;2024-02-28T08:33:47;16.80;18.20
939;DHT22;456;53.584;9.968;2024-02-28T08:36:13;16.80;18.20
939;DHT22;456;53.584;9.968;2024-02-28T08:38:40;16.80;18.10
939;DHT22;456;53.584;9.968;2024-02-28T08:41:07;16.80;18.20
939;DHT22;456;53.584;9.968;2024-02-28T08:43:37;16.80;18.10
939;DHT22;456;53.584;9.968;2024-02-28T08:46:03;16.80;18.10
939;DHT22;456;53.584;9.968;2024-02-28T08:48:29;16.80;18.10
939;DHT22;456;53.584;9.968;2024-02-28T08:50:55;16.80;18.10
939;DHT22;456;53.584;9.968;2024-02-28T08:53:20;16.80;18.60
939;DHT22;456;53.584;9.968;2024-02-28T08:55:46;16.80;18.10
939;DHT22;456;53.584;9.968;2024-02-28T08:58:12;16.80;18.10
939;DHT22;456;53.584;9.968;2024-02-28T09:00:37;16.80;18.10
939;DHT22;456;53.584;9.968;2024-02-28T09:03:04;16.70;18.10
939;DHT22;456;53.584;9.968;2024-02-28T09:05:30;16.70;18.00
939;DHT22;456;53.584;9.968;2024-02-28T09:07:55;16.70;18.00
939;DHT22;456;53.584;9.968;2024-02-28T09:10:23;16.70;18.00
939;DHT22;456;53.584;9.968;2024-02-28T09:12:50;16.70;18.00
939;DHT22;456;53.584;9.968;2024-02-28T09:15:15;16.70;18.00
939;DHT22;456;53.584;9.968;2024-02-28T09:17:41;16.70;18.50
939;DHT22;456;53.584;9.968;2024-02-28T09:20:07;16.70;18.00
939;DHT22;456;53.584;9.968;2024-02-28T09:22:33;16.70;18.10
939;DHT22;456;53.584;9.968;2024-02-28T09:25:00;16.70;18.00
939;DHT22;456;53.584;9.968;2024-02-28T09:27:28;16.70;18.00
939;DHT22;456;53.584;9.968;2024-02-28T09:29:54;16.70;18.00
939;DHT22;456;53.584;9.968;2024-02-28T09:32:19;16.70;18.10
939;DHT22;456;53.584;9.968;2024-02-28T09:34:45;16.70;18.10
939;DHT22;456;53.584;9.968;2024-02-28T09:37:11;16.70;18.10
939;DHT22;456;53.584;9.968;2024-02-28T09:39:40;16.70;18.20
939;DHT22;456;53.584;9.968;2024-02-28T09:42:07;16.70;18.10
939;DHT22;456;53.584;9.968;2024-02-28T09:44:34;16.70;18.10
939;DHT22;456;53.584;9.968;2024-02-28T09:47:00;16.70;18.10
939;DHT22;456;53.584;9.968;2024-02-28T09:49:26;16.70;18.10
939;DHT22;456;53.584;9.968;2024-02-28T09:51:52;16.70;18.10
939;DHT22;456;53.584;9.968;2024-02-28T09:54:18;16.60;18.10
939;DHT22;456;53.584;9.968;2024-02-28T09:56:44;16.70;18.20
939;DHT22;456;53.584;9.968;2024-02-28T09:59:12;16.70;18.20
939;DHT22;456;53.584;9.968;2024-02-28T10:01:43;16.70;18.20
939;DHT22;456;53.584;9.968;2024-02-28T10:04:10;16.70;18.30
939;DHT22;456;53.584;9.968;2024-02-28T10:06:39;16.70;18.30
939;DHT22;456;53.584;9.968;2024-02-28T10:09:05;16.70;18.20
939;DHT22;456;53.584;9.968;2024-02-28T10:11:31;16.70;18.30
939;DHT22;456;53.584;9.968;2024-02-28T10:13:56;16.70;18.30
939;DHT22;456;53.584;9.968;2024-02-28T10:16:22;16.70;18.20
939;DHT22;456;53.584;9.968;2024-02-28T10:18:48;16.70;18.30
939;DHT22;456;53.584;9.968;2024-02-28T10:21:14;16.70;18.20
939;DHT22;456;53.584;9.968;2024-02-28T10:23:41;16.70;18.90
939;DHT22;456;53.584;9.968;2024-02-28T10:26:09;16.70;18.90
939;DHT22;456;53.584;9.968;2024-02-28T10:28:39;16.70;18.30
939;DHT22;456;53.584;9.968;2024-02-28T10:31:08;16.70;18.40
939;DHT22;456;53.584;9.968;2024-02-28T10:33:34;16.70;18.30
939;DHT22;456;53.584;9.968;2024-02-28T10:36:02;16.70;18.60
939;DHT22;456;53.584;9.968;2024-02-28T10:38:28;16.70;18.40
939;DHT22;456;53.584;9.968;2024-02-28T10:40:55;16.70;18.40
939;DHT22;456;53.584;9.968;2024-02-28T10:43:22;16.70;18.40
939;DHT22;456;53.584;9.968;2024-02-28T10:45:48;16.70;18.40
939;DHT22;456;53.584;9.968;2024-02-28T10:48:14;16.70;18.40
939;DHT22;456;53.584;9.968;2024-02-28T10:50:43;16.70;18.40
939;DHT22;456;53.584;9.968;2024-02-28T10:53:13;16.70;18.40
939;DHT22;456;53.584;9.968;2024-02-28T10:55:42;16.70;18.40
939;DHT22;456;53.584;9.968;2024-02-28T10:58:10;16.70;18.40
939;DHT22;456;53.584;9.968;2024-02-28T11:00:36;16.70;18.40
939;DHT22;456;53.584;9.968;2024-02-28T11:03:04;16.70;18.50
939;DHT22;456;53.584;9.968;2024-02-28T11:05:40;16.70;18.50
939;DHT22;456;53.584;9.968;2024-02-28T11:08:29;16.70;18.50
939;DHT22;456;53.584;9.968;2024-02-28T11:10:56;16.60;18.40
939;DHT22;456;53.584;9.968;2024-02-28T11:13:26;16.60;18.40
939;DHT22;456;53.584;9.968;2024-02-28T11:15:52;16.60;18.30
939;DHT22;456;53.584;9.968;2024-02-28T11:18:18;16.60;18.30
939;DHT22;456;53.584;9.968;2024-02-28T11:20:44;16.60;18.30
939;DHT22;456;53.584;9.968;2024-02-28T11:23:13;16.60;18.20
939;DHT22;456;53.584;9.968;2024-02-28T11:25:40;16.60;18.20
939;DHT22;456;53.584;9.968;2024-02-28T11:28:06;16.60;18.30
939;DHT22;456;53.584;9.968;2024-02-28T11:30:32;16.60;18.20
939;DHT22;456;53.584;9.968;2024-02-28T11:32:58;16.60;18.30
939;DHT22;456;53.584;9.968;2024-02-28T11:35:27;16.60;18.40
939;DHT22;456;53.584;9.968;2024-02-28T11:37:56;16.60;18.30
939;DHT22;456;53.584;9.968;2024-02-28T11:40:23;16.60;18.30
939;DHT22;456;53.584;9.968;2024-02-28T11:42:51;16.60;18.40
939;DHT22;456;53.584;9.968;2024-02-28T11:45:17;16.60;18.40
939;DHT22;456;53.584;9.968;2024-02-28T11:47:44;16.60;18.50
939;DHT22;456;53.584;9.968;2024-02-28T11:50:10;16.60;18.50
939;DHT22;456;53.584;9.968;2024-02-28T11:52:36;16.70;18.60
939;DHT22;456;53.584;9.968;2024-02-28T11:55:02;16.60;18.50
939;DHT22;456;53.584;9.968;2024-02-28T11:57:28;16.60;18.60
939;DHT22;456;53.584;9.968;2024-02-28T11:59:56;16.60;18.60
939;DHT22;456;53.584;9.968;2024-02-28T12:02:22;16.60;18.60
939;DHT22;456;53.584;9.968;2024-02-28T12:04:51;16.60;18.60
939;DHT22;456;53.584;9.968;2024-02-28T12:07:17;16.60;18.60
939;DHT22;456;53.584;9.968;2024-02-28T12:09:44;16.60;18.70
939;DHT22;456;53.584;9.968;2024-02-28T12:12:12;16.60;18.70
939;DHT22;456;53.584;9.968;2024-02-28T12:14:37;16.60;18.70
939;DHT22;456;53.584;9.968;2024-02-28T12:17:08;16.60;18.70
939;DHT22;456;53.584;9.968;2024-02-28T12:19:35;16.60;18.70
939;DHT22;456;53.584;9.968;2024-02-28T12:22:01;16.60;18.70
939;DHT22;456;53.584;9.968;2024-02-28T12:24:26;16.60;18.70
939;DHT22;456;53.584;9.968;2024-02-28T12:26:52;16.60;18.70
939;DHT22;456;53.584;9.968;2024-02-28T12:29:18;16.60;18.80
939;DHT22;456;53.584;9.968;2024-02-28T12:31:43;16.60;18.80
939;DHT22;456;53.584;9.968;2024-02-28T12:34:09;16.60;18.80
939;DHT22;456;53.584;9.968;2024-02-28T12:36:35;16.60;18.90
939;DHT22;456;53.584;9.968;2024-02-28T12:39:00;16.60;18.90
939;DHT22;456;53.584;9.968;2024-02-28T12:41:27;16.50;18.80
939;DHT22;456;53.584;9.968;2024-02-28T12:43:52;16.50;18.90
939;DHT22;456;53.584;9.968;2024-02-28T12:46:18;16.60;18.90
939;DHT22;456;53.584;9.968;2024-02-28T12:48:43;16.50;18.90
939;DHT22;456;53.584;9.968;2024-02-28T12:51:20;16.60;18.90
939;DHT22;456;53.584;9.968;2024-02-28T12:53:46;16.50;18.90
939;DHT22;456;53.584;9.968;2024-02-28T12:56:12;16.50;18.90
939;DHT22;456;53.584;9.968;2024-02-28T12:58:38;16.50;18.90
939;DHT22;456;53.584;9.968;2024-02-28T13:01:03;16.50;19.10
939;DHT22;456;53.584;9.968;2024-02-28T13:03:30;16.50;19.00
939;DHT22;456;53.584;9.968;2024-02-28T13:05:55;16.50;19.10
939;DHT22;456;53.584;9.968;2024-02-28T13:08:21;16.50;19.10
939;DHT22;456;53.584;9.968;2024-02-28T13:10:46;16.50;19.10
939;DHT22;456;53.584;9.968;2024-02-28T13:13:12;16.50;19.10
939;DHT22;456;53.584;9.968;2024-02-28T13:15:39;16.50;19.10
939;DHT22;456;53.584;9.968;2024-02-28T13:18:05;16.50;19.20
939;DHT22;456;53.584;9.968;2024-02-28T13:20:34;16.50;19.20
939;DHT22;456;53.584;9.968;2024-02-28T13:23:00;16.50;19.10
939;DHT22;456;53.584;9.968;2024-02-28T13:25:26;16.50;19.20
939;DHT22;456;53.584;9.968;2024-02-28T13:27:52;16.50;19.20
939;DHT22;456;53.584;9.968;2024-02-28T13:30:17;16.50;19.20
939;DHT22;456;53.584;9.968;2024-02-28T13:32:43;16.50;19.20
939;DHT22;456;53.584;9.968;2024-02-28T13:35:09;16.50;19.20
939;DHT22;456;53.584;9.968;2024-02-28T13:37:35;16.50;19.30
939;DHT22;456;53.584;9.968;2024-02-28T13:40:02;16.50;19.30
939;DHT22;456;53.584;9.968;2024-02-28T13:42:30;16.50;19.30
939;DHT22;456;53.584;9.968;2024-02-28T13:44:55;16.50;19.30
939;DHT22;456;53.584;9.968;2024-02-28T13:47:21;16.50;19.30
939;DHT22;456;53.584;9.968;2024-02-28T13:49:46;16.50;19.30
939;DHT22;456;53.584;9.968;2024-02-28T13:52:12;16.50;19.30
939;DHT22;456;53.584;9.968;2024-02-28T13:54:38;16.50;19.40
939;DHT22;456;53.584;9.968;2024-02-28T13:57:04;16.50;19.40
939;DHT22;456;53.584;9.968;2024-02-28T13:59:30;16.50;19.40
939;DHT22;456;53.584;9.968;2024-02-28T14:01:56;16.50;19.40
939;DHT22;456;53.584;9.968;2024-02-28T14:04:22;16.40;19.20
939;DHT22;456;53.584;9.968;2024-02-28T14:06:47;16.50;19.40
939;DHT22;456;53.584;9.968;2024-02-28T14:09:14;16.50;19.50
939;DHT22;456;53.584;9.968;2024-02-28T14:11:40;16.50;19.40
939;DHT22;456;53.584;9.968;2024-02-28T14:14:06;16.50;19.40
939;DHT22;456;53.584;9.968;2024-02-28T14:16:32;16.40;19.40
939;DHT22;456;53.584;9.968;2024-02-28T14:18:58;16.40;19.40
939;DHT22;456;53.584;9.968;2024-02-28T14:21:23;16.50;19.50
939;DHT22;456;53.584;9.968;2024-02-28T14:23:50;16.50;20.00
939;DHT22;456;53.584;9.968;2024-02-28T14:26:16;16.50;19.40
939;DHT22;456;53.584;9.968;2024-02-28T14:28:42;16.50;19.40
939;DHT22;456;53.584;9.968;2024-02-28T14:31:08;16.60;19.40
939;DHT22;456;53.584;9.968;2024-02-28T14:33:33;16.60;19.40
939;DHT22;456;53.584;9.968;2024-02-28T14:36:00;16.70;19.40
939;DHT22;456;53.584;9.968;2024-02-28T14:38:25;16.70;19.40
939;DHT22;456;53.584;9.968;2024-02-28T14:40:53;16.70;19.40
939;DHT22;456;53.584;9.968;2024-02-28T14:43:19;16.70;19.40
939;DHT22;456;53.584;9.968;2024-02-28T14:45:44;16.80;19.50
939;DHT22;456;53.584;9.968;2024-02-28T14:48:10;16.80;19.50
939;DHT22;456;53.584;9.968;2024-02-28T14:50:36;16.80;19.50
939;DHT22;456;53.584;9.968;2024-02-28T14:53:01;16.80;19.50
939;DHT22;456;53.584;9.968;2024-02-28T14:55:27;16.80;19.50
939;DHT22;456;53.584;9.968;2024-02-28T14:57:52;16.80;19.50
939;DHT22;456;53.584;9.968;2024-02-28T15:00:18;16.80;19.50
939;DHT22;456;53.584;9.968;2024-02-28T15:02:44;16.80;19.50
939;DHT22;456;53.584;9.968;2024-02-28T15:05:11;16.80;19.50
939;DHT22;456;53.584;9.968;2024-02-28T15:07:39;16.90;19.60
939;DHT22;456;53.584;9.968;2024-02-28T15:10:06;16.90;19.60
939;DHT22;456;53.584;9.968;2024-02-28T15:12:32;16.90;19.60
939;DHT22;456;53.584;9.968;2024-02-28T15:15:05;16.90;19.50
939;DHT22;456;53.584;9.968;2024-02-28T15:17:31;16.90;19.60
939;DHT22;456;53.584;9.968;2024-02-28T15:19:57;16.90;19.50
939;DHT22;456;53.584;9.968;2024-02-28T15:22:23;16.90;19.60
939;DHT22;456;53.584;9.968;2024-02-28T15:24:49;16.90;19.60
939;DHT22;456;53.584;9.968;2024-02-28T15:27:14;16.90;19.60
939;DHT22;456;53.584;9.968;2024-02-28T15:29:40;16.90;19.60
939;DHT22;456;53.584;9.968;2024-02-28T15:32:06;16.90;19.60
939;DHT22;456;53.584;9.968;2024-02-28T15:34:32;17.00;19.70
939;DHT22;456;53.584;9.968;2024-02-28T15:36:57;17.00;19.70
939;DHT22;456;53.584;9.968;2024-02-28T15:39:23;17.00;19.70
939;DHT22;456;53.584;9.968;2024-02-28T15:41:49;17.00;19.70
939;DHT22;456;53.584;9.968;2024-02-28T15:44:15;17.00;19.80
939;DHT22;456;53.584;9.968;2024-02-28T15:46:40;17.00;19.70
939;DHT22;456;53.584;9.968;2024-02-28T15:49:06;17.00;19.80
939;DHT22;456;53.584;9.968;2024-02-28T15:51:34;17.00;19.80
939;DHT22;456;53.584;9.968;2024-02-28T15:53:59;17.00;19.80
939;DHT22;456;53.584;9.968;2024-02-28T15:56:25;17.00;19.80
939;DHT22;456;53.584;9.968;2024-02-28T15:58:51;17.00;19.90
939;DHT22;456;53.584;9.968;2024-02-28T16:01:16;17.00;19.90
939;DHT22;456;53.584;9.968;2024-02-28T16:03:42;17.10;19.80
939;DHT22;456;53.584;9.968;2024-02-28T16:06:08;17.10;19.90
939;DHT22;456;53.584;9.968;2024-02-28T16:08:39;17.00;19.80
939;DHT22;456;53.584;9.968;2024-02-28T16:11:06;17.10;19.90
939;DHT22;456;53.584;9.968;2024-02-28T16:13:31;17.10;19.90
939;DHT22;456;53.584;9.968;2024-02-28T16:15:57;17.10;19.50
939;DHT22;456;53.584;9.968;2024-02-28T16:18:22;17.10;19.90
939;DHT22;456;53.584;9.968;2024-02-28T16:20:48;17.10;19.90
939;DHT22;456;53.584;9.968;2024-02-28T16:23:13;17.10;19.90
939;DHT22;456;53.584;9.968;2024-02-28T16:25:40;17.10;19.90
939;DHT22;456;53.584;9.968;2024-02-28T16:28:05;17.10;19.90